Time;durP1;ratioP1;P1;durP2;ratioP2;P2;SDS_P1;SDS_P2;PMS_P1;PMS_P2;Temp;Humidity;BMP_temperature;BMP_pressure;BME280_temperature;BME280_humidity;BME280_pressure;Samples;Min_cycle;Max_cycle;Signal;HPM_P1;HPM_P2
2023/11/10 00:01:59;;;;;;;3.20;1.10;;;;;;;5.49;55.66;99470.72;4996931;28;20044;-71
2023/11/10 00:04:24;;;;;;;5.15;1.17;;;;;;;5.20;56.22;99472.75;5005935;28;20144;-71
2023/11/10 00:06:52;;;;;;;1.98;1.10;;;;;;;5.00;56.73;99467.53;5004792;28;20040;-70
2023/11/10 00:09:18;;;;;;;3.00;1.33;;;;;;;5.14;56.42;99460.03;4997137;28;20045;-69
2023/11/10 00:11:47;;;;;;;2.20;1.85;;;;;;;4.76;57.65;99464.94;4988391;28;20053;-70
2023/11/10 00:14:13;;;;;;;2.45;1.25;;;;;;;4.66;57.76;99473.97;4993870;28;20054;-68
2023/11/10 00:16:42;;;;;;;2.40;1.67;;;;;;;5.17;56.40;99467.72;4999771;28;20468;-70
2023/11/10 00:19:07;;;;;;;3.60;1.85;;;;;;;4.95;57.24;99465.13;4995825;28;20570;-68
2023/11/10 00:21:35;;;;;;;3.08;1.58;;;;;;;5.27;56.08;99464.75;4999887;28;20037;-78
2023/11/10 00:24:03;;;;;;;3.35;2.22;;;;;;;4.33;58.56;99456.22;5007512;28;20559;-77
2023/11/10 00:26:33;;;;;;;3.30;2.47;;;;;;;4.23;58.71;99454.88;4992766;28;20112;-78
2023/11/10 00:28:58;;;;;;;9.00;2.50;;;;;;;4.73;58.12;99459.91;5006224;28;20056;-80
2023/11/10 00:31:24;;;;;;;3.67;2.95;;;;;;;4.51;58.11;99461.59;5015067;28;20037;-80
2023/11/10 00:33:52;;;;;;;7.55;2.63;;;;;;;4.56;58.86;99454.50;5017742;28;20037;-80
2023/11/10 00:36:18;;;;;;;2.97;1.75;;;;;;;5.06;57.45;99456.94;5000583;28;20033;-80
2023/11/10 00:38:48;;;;;;;4.60;3.22;;;;;;;5.18;56.77;99459.03;5009169;28;20460;-80
2023/11/10 00:41:14;;;;;;;5.20;3.35;;;;;;;4.79;57.56;99464.00;5004909;28;20036;-74
2023/11/10 00:43:40;;;;;;;6.47;3.20;;;;;;;5.14;56.44;99454.84;5003317;28;20099;-73
2023/11/10 00:46:06;;;;;;;5.47;3.08;;;;;;;5.03;56.41;99459.63;4987891;28;20148;-73
2023/11/10 00:48:34;;;;;;;6.72;2.60;;;;;;;5.03;56.77;99457.91;4999964;28;20042;-74
2023/11/10 00:51:01;;;;;;;4.72;3.60;;;;;;;5.26;55.62;99458.72;5006569;28;20520;-79
2023/11/10 00:53:26;;;;;;;9.90;3.90;;;;;;;4.91;56.60;99457.53;4994188;28;20050;-77
2023/11/10 00:55:55;;;;;;;5.32;3.58;;;;;;;4.87;57.04;99453.34;5010877;28;20059;-78
2023/11/10 00:58:21;;;;;;;5.78;3.28;;;;;;;4.62;57.53;99457.72;5000799;28;20588;-78
2023/11/10 01:00:47;;;;;;;5.15;3.63;;;;;;;5.04;56.03;99449.22;5010947;28;20050;-77
2023/11/10 01:03:12;;;;;;;7.32;3.70;;;;;;;4.65;56.95;99448.97;4983275;28;20053;-77
2023/11/10 01:05:39;;;;;;;9.15;3.70;;;;;;;4.30;57.97;99445.97;5005209;28;20568;-69
2023/11/10 01:08:05;;;;;;;6.10;4.32;;;;;;;4.25;58.70;99442.69;5001438;28;20137;-69
2023/11/10 01:10:32;;;;;;;5.22;3.38;;;;;;;4.07;58.94;99443.38;4988321;28;20033;-68
2023/11/10 01:12:58;;;;;;;5.70;3.63;;;;;;;4.21;58.66;99444.56;4994704;28;20479;-68
2023/11/10 01:15:24;;;;;;;5.43;4.03;;;;;;;4.77;57.25;99455.47;4997090;28;20510;-68
2023/11/10 01:17:50;;;;;;;4.28;3.63;;;;;;;4.94;56.60;99453.06;5000336;28;20049;-67
2023/11/10 01:20:16;;;;;;;6.43;3.58;;;;;;;4.39;58.08;99448.22;5003123;28;20025;-65
2023/11/10 01:22:42;;;;;;;4.35;3.00;;;;;;;4.52;58.16;99447.75;4999916;28;20585;-67
2023/11/10 01:25:08;;;;;;;6.60;4.13;;;;;;;4.53;57.98;99441.69;4987827;28;20566;-67
2023/11/10 01:27:36;;;;;;;8.73;4.55;;;;;;;4.81;56.89;99441.47;5003500;28;20045;-69
2023/11/10 01:30:02;;;;;;;9.43;4.78;;;;;;;4.93;56.56;99445.38;4996855;28;20124;-68
2023/11/10 01:32:27;;;;;;;7.53;4.13;;;;;;;4.76;57.01;99445.97;4985494;28;20033;-67
2023/11/10 01:34:54;;;;;;;9.15;4.93;;;;;;;4.71;57.22;99446.16;4999165;28;20542;-66
2023/11/10 01:37:20;;;;;;;6.85;4.10;;;;;;;4.91;56.56;99442.00;5001537;28;20045;-66
2023/11/10 01:39:46;;;;;;;6.88;3.90;;;;;;;4.54;57.62;99443.38;4998159;28;20034;-66
2023/11/10 01:42:11;;;;;;;5.88;4.22;;;;;;;4.39;57.99;99450.81;4998570;28;20519;-66
2023/11/10 01:44:38;;;;;;;7.82;4.55;;;;;;;4.66;57.19;99455.03;4986103;28;20026;-67
2023/11/10 01:47:05;;;;;;;5.65;4.30;;;;;;;4.89;56.41;99452.41;5005304;28;20167;-68
2023/11/10 01:49:32;;;;;;;5.82;4.53;;;;;;;4.78;57.02;99452.78;5000675;28;20033;-67
2023/11/10 01:51:57;;;;;;;7.45;5.10;;;;;;;4.74;56.57;99445.19;4998828;28;20520;-66
2023/11/10 01:54:27;;;;;;;7.32;4.50;;;;;;;5.05;55.88;99445.72;4987849;28;20033;-68
2023/11/10 01:56:53;;;;;;;8.15;4.50;;;;;;;4.49;57.19;99450.47;4988849;28;20029;-75
2023/11/10 01:59:22;;;;;;;6.65;5.05;;;;;;;4.51;57.32;99453.84;4998050;28;20525;-78
2023/11/10 02:01:48;;;;;;;6.45;4.18;;;;;;;4.83;56.43;99440.53;4995872;28;20056;-77
2023/11/10 02:04:16;;;;;;;6.60;4.43;;;;;;;4.27;58.11;99447.81;5007764;28;20042;-77
2023/11/10 02:06:44;;;;;;;7.50;4.40;;;;;;;4.87;56.25;99443.81;4990044;28;20036;-77
2023/11/10 02:09:10;;;;;;;11.25;4.53;;;;;;;4.72;56.94;99447.00;5000383;28;20038;-78
2023/11/10 02:11:38;;;;;;;5.35;4.28;;;;;;;4.02;57.98;99446.13;5012552;28;20412;-78
2023/11/10 02:14:08;;;;;;;7.53;4.30;;;;;;;4.52;57.07;99437.41;4993025;28;20076;-80
2023/11/10 02:16:35;;;;;;;4.30;3.90;;;;;;;4.07;58.73;99440.78;5015705;28;20100;-80
2023/11/10 02:19:02;;;;;;;6.57;4.13;;;;;;;4.38;57.75;99433.59;5006276;28;20504;-78
2023/11/10 02:21:27;;;;;;;11.18;3.92;;;;;;;4.02;58.93;99431.44;5011601;28;20033;-79
2023/11/10 02:24:01;;;;;;;6.78;3.80;;;;;;;4.63;56.81;99437.84;5008002;28;20045;-80
2023/11/10 02:26:27;;;;;;;4.32;3.60;;;;;;;4.89;56.04;99438.63;4995031;28;20539;-79
2023/11/10 02:28:53;;;;;;;17.35;3.60;;;;;;;5.04;55.55;99438.03;4993126;28;20076;-79
2023/11/10 02:31:19;;;;;;;4.75;3.45;;;;;;;5.23;55.15;99433.78;5005439;28;20074;-79
2023/11/10 02:33:48;;;;;;;4.10;3.50;;;;;;;5.00;55.99;99445.06;4995704;28;20185;-78
2023/11/10 02:36:16;;;;;;;5.13;3.28;;;;;;;5.38;54.82;99441.81;4994246;28;20132;-78
2023/11/10 02:38:42;;;;;;;4.40;3.28;;;;;;;4.62;56.82;99436.16;5000684;28;20843;-71
2023/11/10 02:41:09;;;;;;;6.45;3.22;;;;;;;4.47;56.68;99442.75;5001953;28;20021;-73
2023/11/10 02:43:35;;;;;;;6.90;3.78;;;;;;;4.79;56.55;99443.28;4999854;28;20717;-71
2023/11/10 02:46:01;;;;;;;5.65;3.35;;;;;;;5.16;55.39;99442.69;4997372;28;20105;-70
2023/11/10 02:48:31;;;;;;;4.43;3.17;;;;;;;5.25;54.94;99439.72;5001192;28;20452;-72
2023/11/10 02:51:02;;;;;;;3.97;3.58;;;;;;;5.11;55.49;99449.81;4992465;28;20057;-72
2023/11/10 02:53:30;;;;;;;4.53;2.88;;;;;;;4.74;56.04;99450.38;4998580;28;20091;-72
2023/11/10 02:55:56;;;;;;;3.15;2.45;;;;;;;5.15;55.23;99451.38;5000374;28;20397;-70
2023/11/10 02:58:21;;;;;;;6.03;3.13;;;;;;;4.42;57.33;99448.09;5000246;28;20106;-69
2023/11/10 03:00:47;;;;;;;5.20;3.28;;;;;;;4.95;55.64;99439.22;4999208;28;20025;-69
2023/11/10 03:03:13;;;;;;;8.98;2.78;;;;;;;4.48;57.07;99444.47;4998808;28;20060;-70
2023/11/10 03:05:39;;;;;;;3.63;2.80;;;;;;;4.96;55.59;99440.06;5001674;28;20029;-69
2023/11/10 03:08:05;;;;;;;2.83;2.30;;;;;;;4.86;55.86;99446.50;4996364;28;20195;-69
2023/11/10 03:10:31;;;;;;;4.07;2.55;;;;;;;4.93;55.62;99433.25;5002660;28;20052;-68
2023/11/10 03:12:57;;;;;;;3.30;1.90;;;;;;;4.94;55.54;99426.34;4999117;28;20746;-68
2023/11/10 03:15:22;;;;;;;6.57;2.20;;;;;;;4.64;56.53;99434.38;4999470;28;20554;-67
2023/11/10 03:17:47;;;;;;;2.70;2.33;;;;;;;4.77;55.73;99430.41;5002098;28;20033;-64
2023/11/10 03:20:15;;;;;;;4.57;1.95;;;;;;;4.65;55.92;99425.69;5005010;28;20129;-66
2023/11/10 03:22:42;;;;;;;4.30;2.30;;;;;;;4.25;57.12;99432.34;5013734;28;20529;-64
2023/11/10 03:25:08;;;;;;;4.38;2.17;;;;;;;4.38;57.04;99425.84;5002026;28;20546;-64
2023/11/10 03:27:34;;;;;;;4.63;2.08;;;;;;;4.47;56.72;99429.81;4999364;28;20110;-64
2023/11/10 03:29:59;;;;;;;2.58;1.00;;;;;;;4.81;55.38;99416.44;5001443;28;20493;-65
2023/11/10 03:32:25;;;;;;;2.80;1.33;;;;;;;5.19;54.42;99429.63;4996911;28;20045;-63
2023/11/10 03:34:50;;;;;;;7.68;1.77;;;;;;;5.38;53.90;99429.72;5001727;28;20567;-64
2023/11/10 03:37:17;;;;;;;6.53;1.77;;;;;;;4.52;55.71;99424.47;4999427;28;20533;-64
2023/11/10 03:39:42;;;;;;;5.45;1.80;;;;;;;4.77;55.03;99420.06;5000258;28;20041;-63
2023/11/10 03:42:08;;;;;;;2.72;1.17;;;;;;;4.91;54.92;99421.28;4995415;28;20452;-65
2023/11/10 03:44:34;;;;;;;2.20;0.93;;;;;;;4.78;55.05;99421.72;4990231;28;20622;-65
2023/11/10 03:47:00;;;;;;;1.48;0.77;;;;;;;4.74;54.50;99409.78;4999255;28;20051;-65
2023/11/10 03:49:26;;;;;;;2.25;1.05;;;;;;;4.95;54.34;99409.91;4998421;28;20111;-65
2023/11/10 03:51:52;;;;;;;6.00;1.20;;;;;;;5.04;54.25;99412.13;4999875;28;20491;-64
2023/11/10 03:54:18;;;;;;;1.92;1.30;;;;;;;5.29;53.68;99411.97;4996595;28;20056;-63
2023/11/10 03:56:45;;;;;;;3.10;1.35;;;;;;;5.12;54.21;99404.88;4999127;28;20037;-66
2023/11/10 03:59:11;;;;;;;3.70;1.00;;;;;;;5.11;54.17;99412.72;5002684;28;20077;-67
2023/11/10 04:01:37;;;;;;;5.38;1.30;;;;;;;4.83;55.20;99414.63;5001031;28;20566;-70
2023/11/10 04:04:07;;;;;;;4.60;1.67;;;;;;;4.79;55.08;99414.81;4999468;28;20037;-68
2023/11/10 04:06:34;;;;;;;3.67;1.17;;;;;;;5.19;54.20;99418.41;4999419;28;20412;-67
2023/11/10 04:08:59;;;;;;;5.85;1.45;;;;;;;5.41;53.70;99418.38;4998463;28;20048;-66
2023/11/10 04:11:25;;;;;;;3.58;1.60;;;;;;;4.78;54.73;99416.53;4999133;28;20424;-67
2023/11/10 04:13:51;;;;;;;1.85;1.00;;;;;;;4.83;54.97;99422.41;4989409;28;20056;-70
2023/11/10 04:16:17;;;;;;;4.40;1.98;;;;;;;4.70;55.06;99418.63;4995844;28;20073;-69
2023/11/10 04:18:47;;;;;;;5.80;0.90;;;;;;;5.18;54.09;99414.97;4977822;28;20173;-69
2023/11/10 04:21:18;;;;;;;4.82;1.02;;;;;;;5.11;54.46;99423.09;4999094;28;20041;-71
2023/11/10 04:23:44;;;;;;;2.78;1.23;;;;;;;5.17;53.99;99423.69;5003974;28;20045;-70
2023/11/10 04:26:10;;;;;;;4.18;1.38;;;;;;;5.37;53.49;99419.41;4998033;28;20030;-71
2023/11/10 04:28:40;;;;;;;3.17;1.25;;;;;;;4.82;54.66;99423.28;4989395;28;21018;-68
2023/11/10 04:31:06;;;;;;;2.78;1.00;;;;;;;4.97;54.39;99416.72;5013693;28;20042;-68
2023/11/10 04:33:33;;;;;;;3.55;0.88;;;;;;;5.28;53.48;99420.66;5013447;28;20051;-69
2023/11/10 04:35:58;;;;;;;2.10;0.93;;;;;;;5.06;54.11;99431.03;4998948;28;20619;-68
2023/11/10 04:38:25;;;;;;;3.38;0.98;;;;;;;5.00;54.65;99426.09;4995298;28;20040;-68
2023/11/10 04:40:51;;;;;;;2.00;1.08;;;;;;;4.92;54.20;99417.78;5000553;28;20057;-68
2023/11/10 04:43:17;;;;;;;6.53;1.02;;;;;;;5.17;53.70;99423.69;4994620;28;20486;-68
2023/11/10 04:45:43;;;;;;;4.50;1.17;;;;;;;4.73;54.88;99422.81;4998130;28;20781;-68
2023/11/10 04:48:08;;;;;;;4.70;0.73;;;;;;;5.03;54.17;99408.69;4997632;28;20139;-68
2023/11/10 04:50:34;;;;;;;2.17;0.63;;;;;;;5.16;53.73;99421.97;5000944;28;20121;-68
2023/11/10 04:52:59;;;;;;;3.05;1.20;;;;;;;4.70;54.33;99413.44;4998211;28;20046;-74
2023/11/10 04:55:25;;;;;;;1.77;0.82;;;;;;;5.19;53.85;99415.81;5000248;28;20137;-72
2023/11/10 04:57:50;;;;;;;4.18;1.40;;;;;;;5.41;53.18;99418.38;5001888;28;20046;-68
2023/11/10 05:00:16;;;;;;;5.80;0.90;;;;;;;4.47;55.39;99416.03;4997655;28;20547;-68
2023/11/10 05:02:43;;;;;;;2.20;1.05;;;;;;;5.15;53.35;99419.47;5006093;28;20518;-77
2023/11/10 05:05:13;;;;;;;3.97;1.48;;;;;;;5.19;53.45;99411.50;4998465;28;20025;-73
2023/11/10 05:07:40;;;;;;;3.75;1.17;;;;;;;4.38;55.53;99409.47;5007335;28;20675;-77
2023/11/10 05:10:06;;;;;;;5.55;0.75;;;;;;;4.96;54.26;99409.81;5007315;28;20052;-79
2023/11/10 05:12:34;;;;;;;3.65;1.05;;;;;;;4.81;54.23;99406.09;4998181;28;20336;-78
2023/11/10 05:15:01;;;;;;;2.17;0.80;;;;;;;5.10;53.58;99411.88;4989403;28;20485;-76
2023/11/10 05:17:29;;;;;;;4.25;0.88;;;;;;;5.12;53.82;99402.28;4992033;28;20372;-77
2023/11/10 05:19:54;;;;;;;5.13;0.90;;;;;;;5.22;53.38;99405.34;5006489;28;20034;-76
2023/11/10 05:22:20;;;;;;;3.90;1.63;;;;;;;5.24;53.27;99398.38;5004114;28;20048;-77
2023/11/10 05:24:45;;;;;;;2.47;0.98;;;;;;;5.31;53.36;99402.38;4995332;28;20128;-75
2023/11/10 05:27:11;;;;;;;1.88;0.80;;;;;;;5.05;54.17;99398.25;5004622;28;20057;-75
2023/11/10 05:29:36;;;;;;;4.38;1.08;;;;;;;4.67;55.14;99402.34;5004856;28;20577;-69
2023/11/10 05:32:01;;;;;;;3.42;1.20;;;;;;;5.22;53.77;99400.16;5001061;28;20025;-68
2023/11/10 05:34:29;;;;;;;2.92;1.10;;;;;;;5.19;53.81;99400.28;4999147;28;21145;-67
2023/11/10 05:36:55;;;;;;;2.47;1.00;;;;;;;5.18;54.00;99396.84;5001007;28;20521;-68
2023/11/10 05:39:20;;;;;;;6.20;1.05;;;;;;;5.47;53.29;99405.16;5002004;28;20048;-68
2023/11/10 05:41:46;;;;;;;3.47;0.80;;;;;;;5.24;53.79;99396.59;5001388;28;20109;-68
2023/11/10 05:44:11;;;;;;;3.95;1.30;;;;;;;5.54;52.97;99397.97;5000048;28;20061;-67
2023/11/10 05:46:38;;;;;;;3.75;1.08;;;;;;;5.21;53.69;99399.34;5003031;28;20025;-68
2023/11/10 05:49:08;;;;;;;2.70;0.90;;;;;;;5.37;53.85;99398.66;5002704;28;20050;-68
2023/11/10 05:51:33;;;;;;;3.65;1.15;;;;;;;5.45;53.74;99396.63;5001833;28;20037;-68
2023/11/10 05:54:01;;;;;;;2.17;0.98;;;;;;;5.52;52.88;99402.38;5000689;28;20512;-68
2023/11/10 05:56:26;;;;;;;3.97;0.98;;;;;;;5.49;53.00;99402.53;5000783;28;20044;-67
2023/11/10 05:58:54;;;;;;;2.28;0.82;;;;;;;5.52;53.27;99403.22;5003118;28;20049;-73
2023/11/10 06:01:23;;;;;;;2.97;1.05;;;;;;;5.55;53.27;99404.84;5002954;28;20030;-71
2023/11/10 06:03:50;;;;;;;5.15;0.68;;;;;;;5.55;53.08;99403.09;5008759;28;20049;-71
2023/11/10 06:06:15;;;;;;;3.45;1.40;;;;;;;5.48;53.37;99406.00;4997141;28;20181;-70
2023/11/10 06:08:41;;;;;;;2.28;0.55;;;;;;;4.93;54.78;99403.94;5009581;28;20307;-71
2023/11/10 06:11:07;;;;;;;7.18;1.05;;;;;;;5.34;53.87;99414.34;5003341;28;20045;-71
2023/11/10 06:13:33;;;;;;;2.65;1.23;;;;;;;5.38;53.94;99406.38;4999866;28;20068;-71
2023/11/10 06:15:59;;;;;;;2.33;0.85;;;;;;;4.83;55.87;99408.59;5000154;28;20037;-71
2023/11/10 06:18:25;;;;;;;2.05;0.68;;;;;;;5.16;55.58;99410.78;4996451;28;20483;-70
2023/11/10 06:20:50;;;;;;;1.50;0.90;;;;;;;5.07;55.80;99412.00;5002511;28;20108;-69
2023/11/10 06:23:15;;;;;;;3.40;1.58;;;;;;;5.00;56.30;99406.22;4985057;28;20050;-68
2023/11/10 06:25:41;;;;;;;4.53;1.58;;;;;;;5.05;55.92;99413.78;5003185;28;20091;-67
2023/11/10 06:28:06;;;;;;;4.72;1.30;;;;;;;5.00;56.20;99416.56;4998456;28;20131;-67
2023/11/10 06:30:32;;;;;;;3.63;0.82;;;;;;;5.12;55.96;99420.41;4999016;28;20048;-67
2023/11/10 06:32:57;;;;;;;3.13;1.23;;;;;;;5.16;56.13;99421.97;4998117;28;20069;-67
2023/11/10 06:35:23;;;;;;;2.33;1.05;;;;;;;5.30;55.75;99415.38;5000102;28;20488;-67
2023/11/10 06:37:48;;;;;;;5.35;0.88;;;;;;;5.04;56.06;99418.13;5000674;28;20042;-67
2023/11/10 06:40:15;;;;;;;4.43;1.90;;;;;;;5.23;55.79;99422.56;5001589;28;20527;-67
2023/11/10 06:42:40;;;;;;;3.42;0.75;;;;;;;5.20;56.28;99422.69;5001504;28;20224;-67
2023/11/10 06:45:06;;;;;;;7.68;1.35;;;;;;;5.23;56.03;99418.25;5003038;28;20097;-67
2023/11/10 06:47:33;;;;;;;1.38;0.73;;;;;;;5.20;56.29;99428.72;4999421;28;20531;-68
2023/11/10 06:49:58;;;;;;;5.75;0.82;;;;;;;5.13;56.76;99422.09;5003715;28;20018;-66
2023/11/10 06:52:24;;;;;;;2.70;0.82;;;;;;;5.13;56.42;99422.09;4998453;28;20052;-66
2023/11/10 06:54:49;;;;;;;8.27;1.38;;;;;;;5.07;56.95;99424.94;4986498;28;20063;-64
2023/11/10 06:57:18;;;;;;;3.03;1.92;;;;;;;5.02;57.51;99426.88;5002942;28;20497;-64
2023/11/10 06:59:43;;;;;;;2.70;0.75;;;;;;;5.24;56.72;99422.50;5008730;28;20037;-66
2023/11/10 07:02:12;;;;;;;5.60;1.38;;;;;;;5.06;57.10;99418.09;5003189;28;20511;-65
2023/11/10 07:04:39;;;;;;;3.28;1.25;;;;;;;5.33;56.72;99423.06;4998412;28;20040;-69
2023/11/10 07:07:05;;;;;;;4.97;1.10;;;;;;;5.34;56.39;99419.53;4998595;28;20033;-69
2023/11/10 07:09:31;;;;;;;1.83;0.68;;;;;;;5.38;56.52;99415.91;4998911;28;20444;-68
2023/11/10 07:11:57;;;;;;;5.07;1.08;;;;;;;5.38;56.75;99421.09;4996584;28;20040;-66
2023/11/10 07:14:23;;;;;;;1.88;1.58;;;;;;;5.44;56.10;99423.44;4995374;28;20431;-68
2023/11/10 07:16:51;;;;;;;2.50;1.00;;;;;;;5.54;55.86;99416.13;5001207;28;20030;-69
2023/11/10 07:19:18;;;;;;;2.03;0.95;;;;;;;5.46;56.11;99419.88;4997666;28;20092;-67
2023/11/10 07:21:44;;;;;;;3.13;0.73;;;;;;;5.46;56.44;99419.88;5001546;28;20083;-67
2023/11/10 07:24:11;;;;;;;5.70;1.42;;;;;;;5.54;55.84;99416.94;4999834;28;20666;-65
2023/11/10 07:26:37;;;;;;;4.80;1.33;;;;;;;5.21;56.94;99417.47;4996403;28;21320;-67
2023/11/10 07:29:03;;;;;;;2.85;1.15;;;;;;;5.24;56.68;99419.09;4998185;28;20171;-68
2023/11/10 07:31:29;;;;;;;3.38;1.42;;;;;;;5.46;55.90;99416.44;4998635;28;20500;-68
2023/11/10 07:33:55;;;;;;;3.53;1.52;;;;;;;5.14;56.88;99421.19;4985167;28;20761;-68
2023/11/10 07:36:22;;;;;;;2.75;1.27;;;;;;;5.11;56.78;99423.91;5001248;28;20079;-67
2023/11/10 07:38:49;;;;;;;5.57;1.38;;;;;;;5.39;56.07;99428.81;5001152;28;20037;-69
2023/11/10 07:41:15;;;;;;;3.00;1.30;;;;;;;5.47;55.84;99428.50;5002847;28;20037;-69
2023/11/10 07:43:41;;;;;;;2.70;1.25;;;;;;;5.08;56.61;99431.81;4999712;28;20057;-68
2023/11/10 07:46:07;;;;;;;2.72;1.70;;;;;;;5.33;56.50;99430.81;4999311;28;20045;-69
2023/11/10 07:48:33;;;;;;;2.78;1.45;;;;;;;5.65;55.39;99438.06;4990282;28;20080;-73
2023/11/10 07:50:59;;;;;;;1.75;0.80;;;;;;;5.63;55.60;99436.47;4988590;28;20033;-72
2023/11/10 07:53:26;;;;;;;2.85;1.38;;;;;;;5.51;55.20;99437.81;5003341;28;20084;-72
2023/11/10 07:55:54;;;;;;;3.50;1.20;;;;;;;5.80;54.77;99440.94;5003751;28;20033;-74
2023/11/10 07:58:21;;;;;;;5.00;1.75;;;;;;;5.15;56.30;99446.19;4992502;28;20044;-73
2023/11/10 08:00:48;;;;;;;6.80;1.38;;;;;;;5.67;55.36;99438.00;4990859;28;20538;-71
2023/11/10 08:03:14;;;;;;;3.08;1.10;;;;;;;5.63;54.67;99445.06;4995920;28;20496;-75
2023/11/10 08:05:41;;;;;;;4.40;1.50;;;;;;;5.46;54.92;99444.97;5001485;28;20716;-75
2023/11/10 08:08:07;;;;;;;4.75;1.60;;;;;;;5.48;55.51;99445.75;4989668;28;20503;-72
2023/11/10 08:10:33;;;;;;;4.88;1.27;;;;;;;5.32;55.47;99455.03;5004660;28;20033;-75
2023/11/10 08:12:59;;;;;;;2.85;1.85;;;;;;;4.89;56.53;99444.63;4996042;28;20611;-76
2023/11/10 08:15:25;;;;;;;4.18;1.83;;;;;;;4.98;56.49;99448.63;4984757;28;20037;-74
2023/11/10 08:17:51;;;;;;;3.78;1.17;;;;;;;5.54;55.19;99452.41;4999020;28;20060;-73
2023/11/10 08:20:16;;;;;;;3.13;1.65;;;;;;;6.64;53.82;99439.78;4998704;28;20037;-72
2023/11/10 08:22:44;;;;;;;3.70;1.65;;;;;;;7.20;51.04;99451.00;4979529;28;20046;-75
2023/11/10 08:25:11;;;;;;;4.25;1.25;;;;;;;6.98;50.66;99458.16;5007268;28;20096;-69
2023/11/10 08:27:38;;;;;;;4.88;1.33;;;;;;;8.12;48.66;99456.78;4994555;28;20037;-67
2023/11/10 08:30:09;;;;;;;2.13;1.25;;;;;;;7.81;49.72;99451.50;5005378;28;20029;-68
2023/11/10 08:32:36;;;;;;;6.63;1.00;;;;;;;7.79;49.05;99450.72;4997780;28;20092;-74
2023/11/10 08:35:02;;;;;;;3.88;1.45;;;;;;;8.16;48.20;99452.28;5013641;28;20029;-69
2023/11/10 08:37:28;;;;;;;4.30;1.02;;;;;;;7.62;48.99;99461.97;5001077;28;20103;-73
2023/11/10 08:39:53;;;;;;;2.20;1.30;;;;;;;7.97;47.79;99457.56;5002911;28;20112;-70
2023/11/10 08:42:19;;;;;;;1.70;1.25;;;;;;;7.46;48.83;99452.28;4998214;28;20098;-71
2023/11/10 08:44:46;;;;;;;6.40;2.42;;;;;;;6.98;50.42;99461.59;5000503;28;20048;-71
2023/11/10 08:47:12;;;;;;;6.68;1.70;;;;;;;7.33;50.52;99462.47;4984156;28;20065;-72
2023/11/10 08:49:38;;;;;;;3.63;1.45;;;;;;;8.16;48.96;99467.88;4983669;28;20114;-75
2023/11/10 08:52:04;;;;;;;3.92;1.17;;;;;;;8.26;47.63;99468.22;4989400;28;20037;-66
2023/11/10 08:54:30;;;;;;;6.32;1.20;;;;;;;8.12;47.44;99481.97;4999015;28;20121;-68
2023/11/10 08:56:56;;;;;;;2.67;0.90;;;;;;;7.59;48.63;99470.78;5005913;28;20116;-69
2023/11/10 08:59:21;;;;;;;2.47;1.48;;;;;;;7.10;50.04;99470.53;5005778;28;20036;-70
2023/11/10 09:01:49;;;;;;;4.72;1.45;;;;;;;7.56;49.20;99473.53;5001838;28;20037;-69
2023/11/10 09:04:15;;;;;;;5.25;1.60;;;;;;;6.88;50.24;99466.34;5003691;28;20045;-68
2023/11/10 09:06:41;;;;;;;3.80;2.08;;;;;;;6.63;51.61;99471.84;4986974;28;20032;-68
2023/11/10 09:09:08;;;;;;;5.78;1.15;;;;;;;6.99;50.60;99478.00;4996594;28;20689;-65
2023/11/10 09:11:34;;;;;;;5.70;1.42;;;;;;;6.33;52.68;99473.22;4992517;28;20036;-65
2023/11/10 09:14:03;;;;;;;6.75;1.38;;;;;;;7.25;50.48;99475.00;5004278;28;20042;-67
2023/11/10 09:16:28;;;;;;;5.57;1.20;;;;;;;6.47;51.28;99489.88;5001596;28;20152;-67
2023/11/10 09:18:54;;;;;;;1.92;1.02;;;;;;;6.66;51.17;99481.25;5009073;28;20068;-66
2023/11/10 09:21:21;;;;;;;2.00;1.35;;;;;;;5.99;53.08;99483.28;5004047;28;20083;-67
2023/11/10 09:23:47;;;;;;;5.10;1.67;;;;;;;5.93;54.14;99486.19;5008602;28;20057;-66
2023/11/10 09:26:12;;;;;;;5.43;1.85;;;;;;;5.86;53.62;99489.94;5003296;28;20041;-65
2023/11/10 09:28:38;;;;;;;2.90;1.48;;;;;;;5.00;55.56;99490.84;5004156;28;20045;-66
2023/11/10 09:31:04;;;;;;;3.70;1.40;;;;;;;5.23;54.84;99482.16;5003344;28;20034;-67
2023/11/10 09:33:29;;;;;;;3.58;1.45;;;;;;;5.48;54.32;99479.44;5003383;28;20048;-66
2023/11/10 09:35:55;;;;;;;5.85;1.70;;;;;;;5.82;53.41;99483.19;5006469;28;20120;-66
2023/11/10 09:38:21;;;;;;;3.92;1.60;;;;;;;5.59;54.34;99481.56;5003148;28;20065;-66
2023/11/10 09:40:47;;;;;;;5.00;1.45;;;;;;;6.16;52.92;99482.56;5000485;28;20048;-67
2023/11/10 09:43:14;;;;;;;3.97;1.23;;;;;;;5.89;53.55;99484.63;5003017;28;20056;-64
2023/11/10 09:45:46;;;;;;;5.55;1.52;;;;;;;6.57;51.83;99481.66;5001980;28;20527;-65
2023/11/10 09:48:13;;;;;;;3.30;1.30;;;;;;;7.15;50.66;99486.75;5001436;28;20092;-67
2023/11/10 09:50:41;;;;;;;2.47;1.38;;;;;;;7.72;49.26;99484.84;4999483;28;20041;-67
2023/11/10 09:53:07;;;;;;;3.33;1.02;;;;;;;7.89;48.02;99493.53;5003141;28;20137;-65
2023/11/10 09:55:34;;;;;;;3.33;1.23;;;;;;;8.37;47.35;99491.94;5009071;28;20064;-66
2023/11/10 09:58:01;;;;;;;4.20;1.02;;;;;;;7.60;48.86;99480.28;5002854;28;20123;-65
2023/11/10 10:00:27;;;;;;;3.97;1.13;;;;;;;8.25;47.66;99493.44;4999218;28;20045;-67
2023/11/10 10:02:53;;;;;;;5.97;1.48;;;;;;;7.30;49.63;99499.00;4999510;28;20049;-67
2023/11/10 10:05:18;;;;;;;2.67;1.15;;;;;;;7.67;49.01;99501.59;4997942;28;20349;-66
2023/11/10 10:07:47;;;;;;;6.60;1.20;;;;;;;6.72;51.12;99496.56;4993744;28;20092;-66
2023/11/10 10:10:13;;;;;;;4.45;1.25;;;;;;;7.42;50.02;99496.72;4997479;28;20070;-66
2023/11/10 10:12:40;;;;;;;4.35;1.27;;;;;;;7.05;50.44;99499.34;4993886;28;20559;-67
2023/11/10 10:15:06;;;;;;;6.20;1.52;;;;;;;7.43;50.39;99493.22;4999564;28;20126;-66
2023/11/10 10:17:36;;;;;;;12.25;1.80;;;;;;;7.53;49.43;99491.84;4990233;28;20249;-66
2023/11/10 10:20:08;;;;;;;7.25;1.55;;;;;;;6.97;50.80;99498.00;4997037;28;20539;-65
2023/11/10 10:22:33;;;;;;;4.95;1.30;;;;;;;5.81;53.06;99499.66;4988633;28;20481;-66
2023/11/10 10:24:59;;;;;;;5.38;1.45;;;;;;;5.94;52.88;99512.94;5000358;28;20033;-67
2023/11/10 10:27:24;;;;;;;6.13;1.60;;;;;;;6.03;52.74;99503.00;4984187;28;20064;-67
2023/11/10 10:29:51;;;;;;;4.72;1.42;;;;;;;6.88;51.19;99502.72;4994296;28;20041;-67
2023/11/10 10:32:17;;;;;;;8.52;1.40;;;;;;;6.47;51.66;99497.66;5002721;28;20042;-66
2023/11/10 10:34:44;;;;;;;4.47;1.20;;;;;;;6.18;52.49;99496.31;4992379;28;20124;-67
2023/11/10 10:37:12;;;;;;;5.47;1.15;;;;;;;6.83;51.22;99501.25;4997473;28;20048;-67
2023/11/10 10:39:40;;;;;;;3.33;1.27;;;;;;;6.29;52.36;99495.91;4993486;28;20033;-66
2023/11/10 10:42:12;;;;;;;2.97;0.90;;;;;;;5.86;53.26;99502.91;5012392;28;20038;-66
2023/11/10 10:44:38;;;;;;;;;;;;;;;6.33;52.41;99502.63;4995326;28;20483;-66
2023/11/10 10:47:05;;;;;;;4.28;1.17;;;;;;;6.13;52.38;99490.50;4996389;28;20411;-65
2023/11/10 10:49:32;;;;;;;4.13;1.40;;;;;;;5.82;53.40;99504.78;4996587;28;20044;-65
2023/11/10 10:52:00;;;;;;;8.23;1.92;;;;;;;6.17;52.42;99502.44;4997011;28;20067;-68
2023/11/10 10:54:25;;;;;;;3.53;1.50;;;;;;;5.60;53.51;99499.63;5001561;28;20741;-66
2023/11/10 10:56:52;;;;;;;3.80;1.25;;;;;;;5.83;53.41;99495.25;4990995;28;20035;-66
2023/11/10 10:59:17;;;;;;;2.55;1.20;;;;;;;5.97;52.89;99503.31;5001904;28;20041;-67
2023/11/10 11:01:46;;;;;;;2.97;0.98;;;;;;;5.77;53.12;99503.28;4993002;28;20033;-70
2023/11/10 11:04:29;;;;;;;5.10;1.45;;;;;;;5.36;54.01;99505.81;4999104;28;20045;-67
2023/11/10 11:07:33;;;;;;;1.85;0.60;;;;;;;6.11;52.77;99491.50;4995043;28;20468;-67
2023/11/10 11:10:26;;;;;;;5.53;0.70;;;;;;;6.00;53.38;99497.97;4997562;28;20202;-68
2023/11/10 11:13:12;;;;;;;5.13;1.65;;;;;;;5.19;54.58;99485.75;4993563;28;20053;-67
2023/11/10 11:15:50;;;;;;;2.55;0.50;;;;;;;6.22;52.67;99482.31;4992590;28;20088;-66
2023/11/10 11:18:37;;;;;;;2.88;0.80;;;;;;;6.21;52.97;99490.16;4991789;28;20050;-66
2023/11/10 11:21:04;;;;;;;4.97;0.95;;;;;;;5.96;53.37;99488.63;4997430;28;20048;-65
2023/11/10 11:23:35;;;;;;;4.53;1.42;;;;;;;5.88;52.80;99477.72;4994565;28;20583;-65
2023/11/10 11:26:04;;;;;;;2.70;1.02;;;;;;;6.18;52.50;99474.75;4988016;28;20577;-66
2023/11/10 11:28:36;;;;;;;2.00;0.90;;;;;;;6.19;52.34;99471.22;4996981;28;20044;-66
2023/11/10 11:31:08;;;;;;;6.22;0.82;;;;;;;6.98;51.05;99465.94;5005917;28;20505;-67
2023/11/10 11:33:55;;;;;;;3.15;0.60;;;;;;;7.03;50.73;99469.16;5015134;28;20053;-66
2023/11/10 11:36:22;;;;;;;4.95;0.90;;;;;;;7.27;49.86;99478.38;4996569;28;20069;-68
2023/11/10 11:38:48;;;;;;;7.82;1.02;;;;;;;8.07;48.75;99476.16;4997761;28;20050;-66
2023/11/10 11:41:18;;;;;;;3.75;0.98;;;;;;;7.56;49.05;99472.66;4999595;28;20504;-67